sensor_id;sensor_type;location;lat;lon;timestamp;P1;durP1;ratioP1;P2;durP2;ratioP2
61590;SDS011;57639;52.410;-1.966;2023-03-11T00:01:49;9.30;;;6.55;;
61590;SDS011;57639;52.410;-1.966;2023-03-11T00:04:53;8.57;;;6.35;;
61590;SDS011;57639;52.410;-1.966;2023-03-11T00:07:59;7.07;;;5.80;;
61590;SDS011;57639;52.410;-1.966;2023-03-11T00:11:06;7.22;;;6.10;;
61590;SDS011;57639;52.410;-1.966;2023-03-11T00:14:15;8.18;;;6.45;;
61590;SDS011;57639;52.410;-1.966;2023-03-11T00:17:21;9.50;;;6.03;;
61590;SDS011;57639;52.410;-1.966;2023-03-11T00:20:27;7.93;;;6.22;;
61590;SDS011;57639;52.410;-1.966;2023-03-11T00:23:34;7.63;;;6.32;;
61590;SDS011;57639;52.410;-1.966;2023-03-11T00:26:40;8.73;;;6.22;;
61590;SDS011;57639;52.410;-1.966;2023-03-11T00:29:49;9.30;;;6.50;;
61590;SDS011;57639;52.410;-1.966;2023-03-11T00:32:55;8.10;;;6.20;;
61590;SDS011;57639;52.410;-1.966;2023-03-11T00:36:02;8.98;;;6.28;;
61590;SDS011;57639;52.410;-1.966;2023-03-11T00:39:09;9.40;;;6.28;;
61590;SDS011;57639;52.410;-1.966;2023-03-11T00:42:15;7.85;;;5.40;;
61590;SDS011;57639;52.410;-1.966;2023-03-11T00:45:24;8.13;;;6.10;;
61590;SDS011;57639;52.410;-1.966;2023-03-11T00:48:31;7.63;;;5.20;;
61590;SDS011;57639;52.410;-1.966;2023-03-11T00:51:37;7.55;;;5.68;;
61590;SDS011;57639;52.410;-1.966;2023-03-11T00:54:41;8.35;;;5.97;;
61590;SDS011;57639;52.410;-1.966;2023-03-11T00:57:48;7.72;;;5.72;;
61590;SDS011;57639;52.410;-1.966;2023-03-11T01:00:59;7.83;;;5.70;;
61590;SDS011;57639;52.410;-1.966;2023-03-11T01:04:05;7.10;;;5.60;;
61590;SDS011;57639;52.410;-1.966;2023-03-11T01:07:09;5.75;;;4.93;;
61590;SDS011;57639;52.410;-1.966;2023-03-11T01:10:16;6.43;;;5.28;;
61590;SDS011;57639;52.410;-1.966;2023-03-11T01:13:22;6.93;;;5.40;;
61590;SDS011;57639;52.410;-1.966;2023-03-11T01:16:31;6.50;;;4.95;;
61590;SDS011;57639;52.410;-1.966;2023-03-11T01:19:37;6.40;;;5.05;;
61590;SDS011;57639;52.410;-1.966;2023-03-11T01:22:43;7.72;;;5.20;;
61590;SDS011;57639;52.410;-1.966;2023-03-11T01:25:48;6.93;;;5.50;;
61590;SDS011;57639;52.410;-1.966;2023-03-11T01:28:54;8.93;;;6.00;;
61590;SDS011;57639;52.410;-1.966;2023-03-11T01:32:03;7.45;;;5.03;;
61590;SDS011;57639;52.410;-1.966;2023-03-11T01:35:10;6.22;;;5.05;;
61590;SDS011;57639;52.410;-1.966;2023-03-11T01:38:17;7.93;;;5.40;;
61590;SDS011;57639;52.410;-1.966;2023-03-11T01:41:23;7.18;;;5.05;;
61590;SDS011;57639;52.410;-1.966;2023-03-11T01:44:29;7.20;;;5.18;;
61590;SDS011;57639;52.410;-1.966;2023-03-11T01:47:38;6.65;;;4.93;;
61590;SDS011;57639;52.410;-1.966;2023-03-11T01:50:46;7.25;;;5.00;;
61590;SDS011;57639;52.410;-1.966;2023-03-11T01:53:55;7.85;;;4.78;;
61590;SDS011;57639;52.410;-1.966;2023-03-11T01:57:04;6.30;;;4.57;;
61590;SDS011;57639;52.410;-1.966;2023-03-11T02:00:12;6.28;;;4.65;;
61590;SDS011;57639;52.410;-1.966;2023-03-11T02:03:23;6.85;;;4.80;;
61590;SDS011;57639;52.410;-1.966;2023-03-11T02:06:32;7.00;;;4.90;;
61590;SDS011;57639;52.410;-1.966;2023-03-11T02:09:37;6.53;;;4.93;;
61590;SDS011;57639;52.410;-1.966;2023-03-11T02:12:43;6.25;;;4.68;;
61590;SDS011;57639;52.410;-1.966;2023-03-11T02:15:50;6.47;;;5.00;;
61590;SDS011;57639;52.410;-1.966;2023-03-11T02:19:01;6.90;;;4.45;;
61590;SDS011;57639;52.410;-1.966;2023-03-11T02:22:16;6.00;;;4.35;;
61590;SDS011;57639;52.410;-1.966;2023-03-11T02:25:23;6.13;;;4.40;;
61590;SDS011;57639;52.410;-1.966;2023-03-11T02:28:36;7.55;;;4.63;;
61590;SDS011;57639;52.410;-1.966;2023-03-11T02:31:43;6.30;;;4.82;;
61590;SDS011;57639;52.410;-1.966;2023-03-11T02:34:50;5.88;;;4.47;;
61590;SDS011;57639;52.410;-1.966;2023-03-11T02:37:56;7.15;;;4.65;;
61590;SDS011;57639;52.410;-1.966;2023-03-11T02:41:04;5.78;;;4.22;;
61590;SDS011;57639;52.410;-1.966;2023-03-11T02:44:14;6.38;;;4.60;;
61590;SDS011;57639;52.410;-1.966;2023-03-11T02:47:21;5.93;;;4.72;;
61590;SDS011;57639;52.410;-1.966;2023-03-11T02:50:27;6.85;;;4.38;;
61590;SDS011;57639;52.410;-1.966;2023-03-11T02:53:36;5.97;;;4.30;;
61590;SDS011;57639;52.410;-1.966;2023-03-11T02:56:47;6.40;;;4.15;;
61590;SDS011;57639;52.410;-1.966;2023-03-11T02:59:56;6.72;;;4.55;;
61590;SDS011;57639;52.410;-1.966;2023-03-11T03:03:09;5.40;;;4.07;;
61590;SDS011;57639;52.410;-1.966;2023-03-11T03:06:15;6.55;;;4.30;;
61590;SDS011;57639;52.410;-1.966;2023-03-11T03:09:21;5.05;;;3.80;;
61590;SDS011;57639;52.410;-1.966;2023-03-11T03:12:27;5.68;;;4.38;;
61590;SDS011;57639;52.410;-1.966;2023-03-11T03:15:36;5.35;;;4.10;;
61590;SDS011;57639;52.410;-1.966;2023-03-11T03:18:42;6.03;;;4.00;;
61590;SDS011;57639;52.410;-1.966;2023-03-11T03:21:48;5.35;;;4.20;;
61590;SDS011;57639;52.410;-1.966;2023-03-11T03:24:54;5.43;;;4.15;;
61590;SDS011;57639;52.410;-1.966;2023-03-11T03:28:00;5.18;;;4.00;;
61590;SDS011;57639;52.410;-1.966;2023-03-11T03:31:09;5.43;;;4.03;;
61590;SDS011;57639;52.410;-1.966;2023-03-11T03:34:15;5.55;;;3.72;;
61590;SDS011;57639;52.410;-1.966;2023-03-11T03:37:21;5.03;;;3.70;;
61590;SDS011;57639;52.410;-1.966;2023-03-11T03:40:27;5.30;;;3.63;;
61590;SDS011;57639;52.410;-1.966;2023-03-11T03:43:33;4.82;;;3.65;;
61590;SDS011;57639;52.410;-1.966;2023-03-11T03:46:42;5.90;;;3.97;;
61590;SDS011;57639;52.410;-1.966;2023-03-11T03:49:48;5.88;;;3.83;;
61590;SDS011;57639;52.410;-1.966;2023-03-11T03:52:54;5.00;;;3.42;;
61590;SDS011;57639;52.410;-1.966;2023-03-11T03:56:01;5.43;;;4.05;;
61590;SDS011;57639;52.410;-1.966;2023-03-11T03:59:07;5.43;;;3.70;;
61590;SDS011;57639;52.410;-1.966;2023-03-11T04:02:16;5.25;;;3.42;;
61590;SDS011;57639;52.410;-1.966;2023-03-11T04:05:22;5.88;;;3.45;;
61590;SDS011;57639;52.410;-1.966;2023-03-11T04:08:29;4.15;;;3.17;;
61590;SDS011;57639;52.410;-1.966;2023-03-11T04:11:35;4.93;;;3.70;;
61590;SDS011;57639;52.410;-1.966;2023-03-11T04:14:41;5.25;;;3.63;;
61590;SDS011;57639;52.410;-1.966;2023-03-11T04:17:50;5.35;;;3.40;;
61590;SDS011;57639;52.410;-1.966;2023-03-11T04:20:56;4.13;;;3.40;;
61590;SDS011;57639;52.410;-1.966;2023-03-11T04:24:02;3.90;;;3.10;;
61590;SDS011;57639;52.410;-1.966;2023-03-11T04:27:08;4.25;;;3.10;;
61590;SDS011;57639;52.410;-1.966;2023-03-11T04:30:12;5.13;;;3.38;;
61590;SDS011;57639;52.410;-1.966;2023-03-11T04:33:21;4.05;;;2.78;;
61590;SDS011;57639;52.410;-1.966;2023-03-11T04:36:28;4.35;;;3.10;;
61590;SDS011;57639;52.410;-1.966;2023-03-11T04:39:34;4.07;;;3.00;;
61590;SDS011;57639;52.410;-1.966;2023-03-11T04:42:40;4.95;;;2.65;;
61590;SDS011;57639;52.410;-1.966;2023-03-11T04:45:48;4.28;;;3.00;;
61590;SDS011;57639;52.410;-1.966;2023-03-11T04:48:57;4.95;;;3.13;;
61590;SDS011;57639;52.410;-1.966;2023-03-11T04:52:01;5.15;;;2.90;;
61590;SDS011;57639;52.410;-1.966;2023-03-11T04:55:08;3.53;;;2.53;;
61590;SDS011;57639;52.410;-1.966;2023-03-11T04:58:15;4.13;;;3.00;;
61590;SDS011;57639;52.410;-1.966;2023-03-11T05:01:21;4.80;;;2.72;;
61590;SDS011;57639;52.410;-1.966;2023-03-11T05:04:30;3.85;;;2.60;;
61590;SDS011;57639;52.410;-1.966;2023-03-11T05:07:36;3.65;;;2.60;;
61590;SDS011;57639;52.410;-1.966;2023-03-11T05:10:42;3.70;;;2.45;;
61590;SDS011;57639;52.410;-1.966;2023-03-11T05:13:48;4.20;;;2.65;;
61590;SDS011;57639;52.410;-1.966;2023-03-11T05:16:54;4.30;;;2.25;;
61590;SDS011;57639;52.410;-1.966;2023-03-11T05:20:03;3.17;;;2.47;;
61590;SDS011;57639;52.410;-1.966;2023-03-11T05:23:10;4.18;;;2.47;;
61590;SDS011;57639;52.410;-1.966;2023-03-11T05:26:20;3.55;;;2.30;;
61590;SDS011;57639;52.410;-1.966;2023-03-11T05:29:27;4.20;;;2.42;;
61590;SDS011;57639;52.410;-1.966;2023-03-11T05:32:33;3.63;;;2.30;;
61590;SDS011;57639;52.410;-1.966;2023-03-11T05:35:42;2.88;;;2.15;;
61590;SDS011;57639;52.410;-1.966;2023-03-11T05:38:48;3.33;;;2.00;;
61590;SDS011;57639;52.410;-1.966;2023-03-11T05:41:54;3.05;;;1.90;;
61590;SDS011;57639;52.410;-1.966;2023-03-11T05:45:00;3.70;;;2.00;;
61590;SDS011;57639;52.410;-1.966;2023-03-11T05:48:07;3.35;;;2.03;;
61590;SDS011;57639;52.410;-1.966;2023-03-11T05:51:15;3.83;;;2.28;;
61590;SDS011;57639;52.410;-1.966;2023-03-11T05:54:22;4.50;;;1.95;;
61590;SDS011;57639;52.410;-1.966;2023-03-11T05:57:28;3.38;;;2.20;;
61590;SDS011;57639;52.410;-1.966;2023-03-11T06:00:34;4.65;;;2.13;;
61590;SDS011;57639;52.410;-1.966;2023-03-11T06:03:40;2.45;;;1.80;;
61590;SDS011;57639;52.410;-1.966;2023-03-11T06:06:49;2.65;;;1.80;;
61590;SDS011;57639;52.410;-1.966;2023-03-11T06:09:55;3.03;;;1.85;;
61590;SDS011;57639;52.410;-1.966;2023-03-11T06:13:01;2.38;;;1.67;;
61590;SDS011;57639;52.410;-1.966;2023-03-11T06:16:10;3.30;;;1.90;;
61590;SDS011;57639;52.410;-1.966;2023-03-11T06:19:16;3.70;;;1.92;;
61590;SDS011;57639;52.410;-1.966;2023-03-11T06:22:25;3.65;;;1.95;;
61590;SDS011;57639;52.410;-1.966;2023-03-11T06:25:31;3.10;;;2.00;;
61590;SDS011;57639;52.410;-1.966;2023-03-11T06:28:37;2.35;;;1.70;;
61590;SDS011;57639;52.410;-1.966;2023-03-11T06:31:43;2.33;;;1.67;;
61590;SDS011;57639;52.410;-1.966;2023-03-11T06:34:50;2.38;;;1.60;;
61590;SDS011;57639;52.410;-1.966;2023-03-11T06:37:59;3.17;;;1.50;;
61590;SDS011;57639;52.410;-1.966;2023-03-11T06:41:05;3.33;;;1.63;;
61590;SDS011;57639;52.410;-1.966;2023-03-11T06:44:12;3.08;;;1.70;;
61590;SDS011;57639;52.410;-1.966;2023-03-11T06:47:18;2.60;;;1.70;;
61590;SDS011;57639;52.410;-1.966;2023-03-11T06:50:24;2.95;;;1.65;;
61590;SDS011;57639;52.410;-1.966;2023-03-11T06:53:33;2.67;;;1.65;;
61590;SDS011;57639;52.410;-1.966;2023-03-11T06:56:39;2.75;;;1.63;;
61590;SDS011;57639;52.410;-1.966;2023-03-11T06:59:45;2.70;;;1.85;;
61590;SDS011;57639;52.410;-1.966;2023-03-11T07:02:51;2.45;;;1.40;;
61590;SDS011;57639;52.410;-1.966;2023-03-11T07:05:57;2.40;;;1.52;;
61590;SDS011;57639;52.410;-1.966;2023-03-11T07:09:07;3.13;;;1.50;;
61590;SDS011;57639;52.410;-1.966;2023-03-11T07:12:13;3.33;;;1.88;;
61590;SDS011;57639;52.410;-1.966;2023-03-11T07:15:19;2.72;;;1.90;;
61590;SDS011;57639;52.410;-1.966;2023-03-11T07:18:23;2.28;;;1.60;;
61590;SDS011;57639;52.410;-1.966;2023-03-11T07:21:29;2.40;;;1.60;;
61590;SDS011;57639;52.410;-1.966;2023-03-11T07:24:39;2.40;;;1.60;;
61590;SDS011;57639;52.410;-1.966;2023-03-11T07:27:45;3.45;;;1.52;;
61590;SDS011;57639;52.410;-1.966;2023-03-11T07:30:51;2.53;;;1.67;;
61590;SDS011;57639;52.410;-1.966;2023-03-11T07:33:58;2.50;;;1.70;;
61590;SDS011;57639;52.410;-1.966;2023-03-11T07:37:06;3.25;;;1.70;;
61590;SDS011;57639;52.410;-1.966;2023-03-11T07:40:15;2.85;;;1.70;;
61590;SDS011;57639;52.410;-1.966;2023-03-11T07:43:21;3.07;;;1.70;;
61590;SDS011;57639;52.410;-1.966;2023-03-11T07:46:27;3.05;;;1.60;;
61590;SDS011;57639;52.410;-1.966;2023-03-11T07:49:34;3.10;;;1.70;;
61590;SDS011;57639;52.410;-1.966;2023-03-11T07:52:40;3.78;;;1.75;;
61590;SDS011;57639;52.410;-1.966;2023-03-11T07:55:49;3.65;;;1.83;;
61590;SDS011;57639;52.410;-1.966;2023-03-11T07:59:00;3.00;;;1.65;;
61590;SDS011;57639;52.410;-1.966;2023-03-11T08:02:08;2.75;;;1.70;;
61590;SDS011;57639;52.410;-1.966;2023-03-11T08:05:14;2.80;;;1.60;;
61590;SDS011;57639;52.410;-1.966;2023-03-11T08:08:22;3.42;;;1.60;;
61590;SDS011;57639;52.410;-1.966;2023-03-11T08:11:31;2.88;;;1.60;;
61590;SDS011;57639;52.410;-1.966;2023-03-11T08:14:37;2.50;;;1.57;;
61590;SDS011;57639;52.410;-1.966;2023-03-11T08:17:45;3.13;;;1.80;;
61590;SDS011;57639;52.410;-1.966;2023-03-11T08:20:51;2.33;;;1.50;;
61590;SDS011;57639;52.410;-1.966;2023-03-11T08:23:57;2.80;;;1.42;;
61590;SDS011;57639;52.410;-1.966;2023-03-11T08:27:08;2.58;;;1.52;;
61590;SDS011;57639;52.410;-1.966;2023-03-11T08:30:14;2.88;;;1.40;;
61590;SDS011;57639;52.410;-1.966;2023-03-11T08:33:20;2.50;;;1.58;;
61590;SDS011;57639;52.410;-1.966;2023-03-11T08:36:26;2.72;;;1.65;;
61590;SDS011;57639;52.410;-1.966;2023-03-11T08:39:32;2.33;;;1.50;;
61590;SDS011;57639;52.410;-1.966;2023-03-11T08:42:41;3.10;;;1.98;;
61590;SDS011;57639;52.410;-1.966;2023-03-11T08:45:47;2.35;;;1.45;;
61590;SDS011;57639;52.410;-1.966;2023-03-11T08:48:53;3.00;;;1.63;;
61590;SDS011;57639;52.410;-1.966;2023-03-11T08:52:00;2.58;;;1.58;;
61590;SDS011;57639;52.410;-1.966;2023-03-11T08:55:07;2.75;;;1.65;;
61590;SDS011;57639;52.410;-1.966;2023-03-11T08:58:18;3.17;;;1.60;;
61590;SDS011;57639;52.410;-1.966;2023-03-11T09:01:24;3.42;;;1.48;;
61590;SDS011;57639;52.410;-1.966;2023-03-11T09:04:30;2.75;;;1.35;;
61590;SDS011;57639;52.410;-1.966;2023-03-11T09:07:36;3.67;;;1.63;;
61590;SDS011;57639;52.410;-1.966;2023-03-11T09:10:43;2.88;;;1.48;;
61590;SDS011;57639;52.410;-1.966;2023-03-11T09:13:51;2.85;;;1.58;;
61590;SDS011;57639;52.410;-1.966;2023-03-11T09:16:57;2.45;;;1.30;;
61590;SDS011;57639;52.410;-1.966;2023-03-11T09:20:04;2.58;;;1.52;;
61590;SDS011;57639;52.410;-1.966;2023-03-11T09:23:09;2.72;;;1.30;;
61590;SDS011;57639;52.410;-1.966;2023-03-11T09:26:17;3.40;;;1.33;;
61590;SDS011;57639;52.410;-1.966;2023-03-11T09:29:27;3.13;;;1.70;;
61590;SDS011;57639;52.410;-1.966;2023-03-11T09:32:34;2.38;;;1.20;;
61590;SDS011;57639;52.410;-1.966;2023-03-11T09:35:40;4.28;;;1.30;;
61590;SDS011;57639;52.410;-1.966;2023-03-11T09:38:46;2.75;;;1.38;;
61590;SDS011;57639;52.410;-1.966;2023-03-11T09:41:54;3.03;;;1.40;;
61590;SDS011;57639;52.410;-1.966;2023-03-11T09:45:05;2.40;;;1.50;;
61590;SDS011;57639;52.410;-1.966;2023-03-11T09:48:19;2.55;;;1.40;;
61590;SDS011;57639;52.410;-1.966;2023-03-11T09:51:31;3.50;;;1.40;;
61590;SDS011;57639;52.410;-1.966;2023-03-11T09:54:42;2.50;;;1.35;;
61590;SDS011;57639;52.410;-1.966;2023-03-11T09:57:52;5.35;;;1.67;;
61590;SDS011;57639;52.410;-1.966;2023-03-11T10:01:02;4.07;;;1.40;;
61590;SDS011;57639;52.410;-1.966;2023-03-11T10:04:18;3.78;;;1.55;;
61590;SDS011;57639;52.410;-1.966;2023-03-11T10:07:31;2.40;;;1.40;;
61590;SDS011;57639;52.410;-1.966;2023-03-11T10:10:42;2.33;;;1.30;;
61590;SDS011;57639;52.410;-1.966;2023-03-11T10:13:57;1.98;;;1.20;;
61590;SDS011;57639;52.410;-1.966;2023-03-11T10:17:14;2.75;;;1.40;;
61590;SDS011;57639;52.410;-1.966;2023-03-11T10:20:41;2.72;;;1.10;;
61590;SDS011;57639;52.410;-1.966;2023-03-11T10:24:00;2.90;;;1.30;;
61590;SDS011;57639;52.410;-1.966;2023-03-11T10:27:18;2.92;;;1.15;;
61590;SDS011;57639;52.410;-1.966;2023-03-11T10:30:29;2.10;;;0.98;;
61590;SDS011;57639;52.410;-1.966;2023-03-11T10:33:43;2.13;;;1.10;;
61590;SDS011;57639;52.410;-1.966;2023-03-11T10:36:54;2.75;;;1.38;;
61590;SDS011;57639;52.410;-1.966;2023-03-11T10:40:07;3.83;;;1.33;;
61590;SDS011;57639;52.410;-1.966;2023-03-11T10:43:20;2.67;;;1.40;;
61590;SDS011;57639;52.410;-1.966;2023-03-11T10:46:32;2.65;;;1.30;;
61590;SDS011;57639;52.410;-1.966;2023-03-11T10:49:41;2.33;;;1.00;;
61590;SDS011;57639;52.410;-1.966;2023-03-11T10:56:10;4.00;;;1.20;;
61590;SDS011;57639;52.410;-1.966;2023-03-11T10:59:31;7.95;;;1.65;;
61590;SDS011;57639;52.410;-1.966;2023-03-11T11:02:39;4.97;;;1.55;;
61590;SDS011;57639;52.410;-1.966;2023-03-11T11:06:00;2.80;;;1.10;;
61590;SDS011;57639;52.410;-1.966;2023-03-11T11:09:15;4.65;;;1.20;;
61590;SDS011;57639;52.410;-1.966;2023-03-11T11:12:23;4.82;;;1.40;;
61590;SDS011;57639;52.410;-1.966;2023-03-11T11:15:29;3.25;;;1.25;;
61590;SDS011;57639;52.410;-1.966;2023-03-11T11:18:41;4.93;;;1.40;;
61590;SDS011;57639;52.410;-1.966;2023-03-11T11:21:52;4.40;;;1.45;;
61590;SDS011;57639;52.410;-1.966;2023-03-11T11:24:58;3.75;;;1.30;;
61590;SDS011;57639;52.410;-1.966;2023-03-11T11:28:14;3.58;;;1.33;;
61590;SDS011;57639;52.410;-1.966;2023-03-11T11:31:22;3.38;;;1.13;;
61590;SDS011;57639;52.410;-1.966;2023-03-11T11:34:31;4.40;;;1.25;;
61590;SDS011;57639;52.410;-1.966;2023-03-11T11:37:41;2.67;;;1.40;;
61590;SDS011;57639;52.410;-1.966;2023-03-11T11:40:50;2.10;;;1.10;;
61590;SDS011;57639;52.410;-1.966;2023-03-11T11:43:58;3.35;;;1.27;;
61590;SDS011;57639;52.410;-1.966;2023-03-11T11:47:06;4.28;;;1.50;;
61590;SDS011;57639;52.410;-1.966;2023-03-11T11:50:19;3.25;;;1.15;;
61590;SDS011;57639;52.410;-1.966;2023-03-11T11:53:36;2.72;;;1.20;;
61590;SDS011;57639;52.410;-1.966;2023-03-11T11:56:47;3.28;;;1.27;;
61590;SDS011;57639;52.410;-1.966;2023-03-11T11:59:53;5.10;;;1.48;;
61590;SDS011;57639;52.410;-1.966;2023-03-11T12:03:10;2.50;;;1.05;;
61590;SDS011;57639;52.410;-1.966;2023-03-11T12:06:33;2.35;;;1.30;;
61590;SDS011;57639;52.410;-1.966;2023-03-11T12:09:48;2.10;;;1.00;;
61590;SDS011;57639;52.410;-1.966;2023-03-11T12:16:50;3.58;;;1.20;;
61590;SDS011;57639;52.410;-1.966;2023-03-11T12:20:02;2.10;;;1.00;;
61590;SDS011;57639;52.410;-1.966;2023-03-11T12:23:19;2.30;;;1.10;;
61590;SDS011;57639;52.410;-1.966;2023-03-11T12:26:38;2.58;;;1.20;;
61590;SDS011;57639;52.410;-1.966;2023-03-11T12:29:48;2.75;;;1.10;;
61590;SDS011;57639;52.410;-1.966;2023-03-11T12:32:59;2.53;;;1.10;;
61590;SDS011;57639;52.410;-1.966;2023-03-11T12:39:35;2.50;;;1.02;;
61590;SDS011;57639;52.410;-1.966;2023-03-11T12:42:46;3.10;;;1.02;;
61590;SDS011;57639;52.410;-1.966;2023-03-11T12:45:52;1.90;;;1.00;;
61590;SDS011;57639;52.410;-1.966;2023-03-11T12:49:05;1.70;;;0.95;;
61590;SDS011;57639;52.410;-1.966;2023-03-11T12:52:18;4.05;;;1.00;;
61590;SDS011;57639;52.410;-1.966;2023-03-11T12:55:31;1.73;;;0.90;;
61590;SDS011;57639;52.410;-1.966;2023-03-11T12:58:50;2.25;;;1.00;;
61590;SDS011;57639;52.410;-1.966;2023-03-11T13:02:17;2.58;;;1.00;;
61590;SDS011;57639;52.410;-1.966;2023-03-11T13:05:36;2.13;;;0.95;;
61590;SDS011;57639;52.410;-1.966;2023-03-11T13:08:54;1.50;;;0.90;;
61590;SDS011;57639;52.410;-1.966;2023-03-11T13:12:19;2.63;;;1.10;;
61590;SDS011;57639;52.410;-1.966;2023-03-11T13:15:49;2.20;;;1.00;;
61590;SDS011;57639;52.410;-1.966;2023-03-11T13:18:56;1.63;;;0.80;;
61590;SDS011;57639;52.410;-1.966;2023-03-11T13:22:41;2.25;;;0.90;;
61590;SDS011;57639;52.410;-1.966;2023-03-11T13:29:45;2.17;;;0.70;;
61590;SDS011;57639;52.410;-1.966;2023-03-11T13:33:06;1.80;;;0.77;;
61590;SDS011;57639;52.410;-1.966;2023-03-11T13:36:36;2.63;;;0.90;;
61590;SDS011;57639;52.410;-1.966;2023-03-11T13:39:52;2.80;;;0.88;;
61590;SDS011;57639;52.410;-1.966;2023-03-11T13:43:07;1.80;;;0.93;;
61590;SDS011;57639;52.410;-1.966;2023-03-11T13:46:21;2.47;;;0.90;;
61590;SDS011;57639;52.410;-1.966;2023-03-11T13:49:37;1.67;;;0.90;;
61590;SDS011;57639;52.410;-1.966;2023-03-11T13:52:48;1.45;;;0.93;;
61590;SDS011;57639;52.410;-1.966;2023-03-11T13:55:56;2.25;;;1.10;;
61590;SDS011;57639;52.410;-1.966;2023-03-11T13:59:15;3.25;;;1.00;;
61590;SDS011;57639;52.410;-1.966;2023-03-11T14:02:22;3.47;;;0.85;;
61590;SDS011;57639;52.410;-1.966;2023-03-11T14:05:34;2.08;;;0.82;;
61590;SDS011;57639;52.410;-1.966;2023-03-11T14:08:41;2.10;;;0.90;;
61590;SDS011;57639;52.410;-1.966;2023-03-11T14:12:02;1.58;;;0.90;;
61590;SDS011;57639;52.410;-1.966;2023-03-11T14:15:11;1.92;;;0.90;;
61590;SDS011;57639;52.410;-1.966;2023-03-11T14:21:33;2.08;;;0.82;;
61590;SDS011;57639;52.410;-1.966;2023-03-11T14:24:39;2.28;;;0.80;;
61590;SDS011;57639;52.410;-1.966;2023-03-11T14:27:53;1.88;;;0.90;;
61590;SDS011;57639;52.410;-1.966;2023-03-11T14:31:01;2.05;;;0.90;;
61590;SDS011;57639;52.410;-1.966;2023-03-11T14:34:12;1.45;;;0.80;;
61590;SDS011;57639;52.410;-1.966;2023-03-11T14:37:26;1.80;;;0.90;;
61590;SDS011;57639;52.410;-1.966;2023-03-11T14:40:36;1.98;;;0.82;;
61590;SDS011;57639;52.410;-1.966;2023-03-11T14:43:44;1.63;;;0.90;;
61590;SDS011;57639;52.410;-1.966;2023-03-11T14:46:55;6.03;;;1.05;;
61590;SDS011;57639;52.410;-1.966;2023-03-11T14:50:09;1.77;;;1.00;;
61590;SDS011;57639;52.410;-1.966;2023-03-11T14:53:23;2.08;;;0.90;;
61590;SDS011;57639;52.410;-1.966;2023-03-11T14:56:31;3.67;;;1.10;;
61590;SDS011;57639;52.410;-1.966;2023-03-11T14:59:42;3.10;;;0.90;;
61590;SDS011;57639;52.410;-1.966;2023-03-11T15:02:54;3.13;;;0.88;;
61590;SDS011;57639;52.410;-1.966;2023-03-11T15:06:08;2.35;;;0.80;;
61590;SDS011;57639;52.410;-1.966;2023-03-11T15:09:22;1.92;;;0.98;;
61590;SDS011;57639;52.410;-1.966;2023-03-11T15:12:30;3.83;;;1.08;;
61590;SDS011;57639;52.410;-1.966;2023-03-11T15:15:37;2.25;;;1.00;;
61590;SDS011;57639;52.410;-1.966;2023-03-11T15:18:43;2.08;;;0.77;;
61590;SDS011;57639;52.410;-1.966;2023-03-11T15:21:50;3.10;;;1.00;;
61590;SDS011;57639;52.410;-1.966;2023-03-11T15:25:03;2.08;;;1.00;;
61590;SDS011;57639;52.410;-1.966;2023-03-11T15:28:20;2.55;;;0.90;;
61590;SDS011;57639;52.410;-1.966;2023-03-11T15:31:29;2.22;;;1.10;;
61590;SDS011;57639;52.410;-1.966;2023-03-11T15:34:37;2.65;;;1.00;;
61590;SDS011;57639;52.410;-1.966;2023-03-11T15:37:44;2.00;;;1.13;;
61590;SDS011;57639;52.410;-1.966;2023-03-11T15:40:55;4.80;;;1.20;;
61590;SDS011;57639;52.410;-1.966;2023-03-11T15:44:03;2.30;;;1.00;;
61590;SDS011;57639;52.410;-1.966;2023-03-11T15:47:22;4.68;;;1.17;;
61590;SDS011;57639;52.410;-1.966;2023-03-11T15:50:28;2.40;;;0.98;;
61590;SDS011;57639;52.410;-1.966;2023-03-11T15:53:35;2.75;;;1.00;;
61590;SDS011;57639;52.410;-1.966;2023-03-11T15:56:43;3.75;;;1.10;;
61590;SDS011;57639;52.410;-1.966;2023-03-11T15:59:50;1.70;;;1.00;;
61590;SDS011;57639;52.410;-1.966;2023-03-11T16:02:57;3.60;;;1.13;;
61590;SDS011;57639;52.410;-1.966;2023-03-11T16:06:04;3.28;;;1.20;;
61590;SDS011;57639;52.410;-1.966;2023-03-11T16:09:10;3.25;;;1.05;;
61590;SDS011;57639;52.410;-1.966;2023-03-11T16:12:20;3.53;;;1.20;;
61590;SDS011;57639;52.410;-1.966;2023-03-11T16:18:34;3.75;;;1.23;;
61590;SDS011;57639;52.410;-1.966;2023-03-11T16:21:40;2.30;;;1.30;;
61590;SDS011;57639;52.410;-1.966;2023-03-11T16:24:51;2.08;;;1.00;;
61590;SDS011;57639;52.410;-1.966;2023-03-11T16:27:58;2.83;;;1.20;;
61590;SDS011;57639;52.410;-1.966;2023-03-11T16:31:05;3.13;;;1.48;;
61590;SDS011;57639;52.410;-1.966;2023-03-11T16:34:12;4.45;;;1.50;;
61590;SDS011;57639;52.410;-1.966;2023-03-11T16:37:19;4.88;;;1.30;;
61590;SDS011;57639;52.410;-1.966;2023-03-11T16:40:26;2.75;;;1.50;;
61590;SDS011;57639;52.410;-1.966;2023-03-11T16:43:36;3.42;;;1.40;;
61590;SDS011;57639;52.410;-1.966;2023-03-11T16:46:42;2.70;;;1.30;;
61590;SDS011;57639;52.410;-1.966;2023-03-11T16:49:48;3.22;;;1.40;;
61590;SDS011;57639;52.410;-1.966;2023-03-11T16:52:55;2.88;;;1.42;;
61590;SDS011;57639;52.410;-1.966;2023-03-11T16:56:03;1.73;;;1.23;;
61590;SDS011;57639;52.410;-1.966;2023-03-11T16:59:13;4.45;;;1.50;;
61590;SDS011;57639;52.410;-1.966;2023-03-11T17:02:19;2.80;;;1.30;;
61590;SDS011;57639;52.410;-1.966;2023-03-11T17:05:25;3.95;;;1.23;;
61590;SDS011;57639;52.410;-1.966;2023-03-11T17:08:32;2.40;;;1.17;;
61590;SDS011;57639;52.410;-1.966;2023-03-11T17:11:38;2.33;;;1.27;;
61590;SDS011;57639;52.410;-1.966;2023-03-11T17:14:46;3.97;;;1.45;;
61590;SDS011;57639;52.410;-1.966;2023-03-11T17:17:52;3.38;;;1.42;;
61590;SDS011;57639;52.410;-1.966;2023-03-11T17:20:59;3.45;;;1.10;;
61590;SDS011;57639;52.410;-1.966;2023-03-11T17:24:05;2.65;;;1.30;;
61590;SDS011;57639;52.410;-1.966;2023-03-11T17:27:13;2.95;;;1.10;;
61590;SDS011;57639;52.410;-1.966;2023-03-11T17:30:22;2.75;;;1.40;;
61590;SDS011;57639;52.410;-1.966;2023-03-11T17:33:28;2.07;;;1.20;;
61590;SDS011;57639;52.410;-1.966;2023-03-11T17:36:34;2.65;;;1.42;;
61590;SDS011;57639;52.410;-1.966;2023-03-11T17:39:40;2.53;;;1.42;;
61590;SDS011;57639;52.410;-1.966;2023-03-11T17:42:46;2.00;;;1.02;;
61590;SDS011;57639;52.410;-1.966;2023-03-11T17:45:55;2.50;;;1.10;;
61590;SDS011;57639;52.410;-1.966;2023-03-11T17:49:01;2.63;;;1.20;;
61590;SDS011;57639;52.410;-1.966;2023-03-11T17:52:07;2.40;;;1.17;;
61590;SDS011;57639;52.410;-1.966;2023-03-11T17:55:14;2.72;;;1.20;;
61590;SDS011;57639;52.410;-1.966;2023-03-11T17:58:20;3.67;;;1.20;;
61590;SDS011;57639;52.410;-1.966;2023-03-11T18:01:29;3.50;;;1.20;;
61590;SDS011;57639;52.410;-1.966;2023-03-11T18:04:35;1.80;;;1.02;;
61590;SDS011;57639;52.410;-1.966;2023-03-11T18:07:43;2.80;;;1.17;;
61590;SDS011;57639;52.410;-1.966;2023-03-11T18:10:49;3.30;;;1.33;;
61590;SDS011;57639;52.410;-1.966;2023-03-11T18:13:55;2.38;;;1.02;;
61590;SDS011;57639;52.410;-1.966;2023-03-11T18:17:05;1.83;;;1.00;;
61590;SDS011;57639;52.410;-1.966;2023-03-11T18:20:11;2.08;;;1.05;;
61590;SDS011;57639;52.410;-1.966;2023-03-11T18:23:18;1.80;;;1.15;;
61590;SDS011;57639;52.410;-1.966;2023-03-11T18:26:24;3.55;;;1.10;;
61590;SDS011;57639;52.410;-1.966;2023-03-11T18:29:32;1.30;;;0.90;;
61590;SDS011;57639;52.410;-1.966;2023-03-11T18:32:41;2.58;;;1.08;;
61590;SDS011;57639;52.410;-1.966;2023-03-11T18:35:47;2.78;;;1.10;;
61590;SDS011;57639;52.410;-1.966;2023-03-11T18:38:55;3.55;;;1.30;;
61590;SDS011;57639;52.410;-1.966;2023-03-11T18:41:59;2.03;;;1.10;;
61590;SDS011;57639;52.410;-1.966;2023-03-11T18:45:07;2.63;;;1.20;;
61590;SDS011;57639;52.410;-1.966;2023-03-11T18:48:18;2.00;;;0.90;;
61590;SDS011;57639;52.410;-1.966;2023-03-11T18:51:24;4.72;;;1.10;;
61590;SDS011;57639;52.410;-1.966;2023-03-11T18:54:31;2.90;;;1.00;;
61590;SDS011;57639;52.410;-1.966;2023-03-11T18:57:37;1.88;;;1.08;;
61590;SDS011;57639;52.410;-1.966;2023-03-11T19:00:44;2.20;;;1.02;;